Time;durP1;ratioP1;P1;durP2;ratioP2;P2;SDS_P1;SDS_P2;PMS_P1;PMS_P2;Temp;Humidity;BMP_temperature;BMP_pressure;BME280_temperature;BME280_humidity;BME280_pressure;Samples;Min_cycle;Max_cycle;Signal;HPM_P1;HPM_P2
2022/11/22 00:00:27;;;;;;;25.33;13.40;;;6.10;99.90;;;;;;5043326;28;20206;-70
2022/11/22 00:02:54;;;;;;;27.63;12.57;;;6.20;99.90;;;;;;5044314;28;20227;-70
2022/11/22 00:05:22;;;;;;;28.50;13.17;;;6.20;99.90;;;;;;5032467;28;20235;-70
2022/11/22 00:07:48;;;;;;;27.17;12.67;;;6.20;99.90;;;;;;5042034;28;20230;-70
2022/11/22 00:10:16;;;;;;;32.70;13.43;;;6.20;99.90;;;;;;5039737;28;20272;-71
2022/11/22 00:12:43;;;;;;;25.13;12.67;;;6.20;99.90;;;;;;5044815;28;20288;-70
2022/11/22 00:15:11;;;;;;;26.93;14.20;;;6.20;99.90;;;;;;5043874;28;20202;-70
2022/11/22 00:17:38;;;;;;;26.37;12.53;;;6.20;99.90;;;;;;5042555;28;20240;-70
2022/11/22 00:20:09;;;;;;;24.93;12.57;;;6.20;99.90;;;;;;5041647;28;20204;-70
2022/11/22 00:22:36;;;;;;;25.37;11.87;;;6.20;99.90;;;;;;5041945;28;20243;-70
2022/11/22 00:25:09;;;;;;;25.37;12.57;;;6.20;99.90;;;;;;5040164;28;20301;-70
2022/11/22 00:27:36;;;;;;;28.53;14.27;;;6.20;99.90;;;;;;5042270;28;20197;-71
2022/11/22 00:30:04;;;;;;;33.20;13.50;;;6.20;99.90;;;;;;5045515;28;20277;-70
2022/11/22 00:32:30;;;;;;;31.80;13.90;;;6.20;99.90;;;;;;5039783;28;20696;-69
2022/11/22 00:34:57;;;;;;;27.70;14.40;;;6.20;99.90;;;;;;5042496;28;20285;-70
2022/11/22 00:37:24;;;;;;;29.63;15.10;;;6.20;99.90;;;;;;5039546;28;20246;-70
2022/11/22 00:39:51;;;;;;;26.70;14.40;;;6.20;99.90;;;;;;5042313;28;20209;-71
2022/11/22 00:42:18;;;;;;;24.53;14.70;;;6.20;99.90;;;;;;5038910;28;20211;-70
2022/11/22 00:44:44;;;;;;;33.27;16.37;;;6.20;99.90;;;;;;5026283;28;20725;-71
2022/11/22 00:47:11;;;;;;;31.60;15.87;;;6.20;99.90;;;;;;5041098;28;20307;-70
2022/11/22 00:49:38;;;;;;;31.03;17.10;;;6.20;99.90;;;;;;5039781;28;20294;-71
2022/11/22 00:52:05;;;;;;;28.63;15.60;;;6.30;99.90;;;;;;5041951;28;20318;-70
2022/11/22 00:54:32;;;;;;;32.93;15.40;;;6.30;99.90;;;;;;5035960;28;20589;-70
2022/11/22 00:56:59;;;;;;;30.80;16.60;;;6.30;99.90;;;;;;5039903;28;20246;-69
2022/11/22 00:59:25;;;;;;;32.13;16.30;;;6.30;99.90;;;;;;5040151;28;20653;-71
2022/11/22 01:01:53;;;;;;;32.70;15.53;;;6.30;99.90;;;;;;5039125;28;20689;-70
2022/11/22 01:04:20;;;;;;;32.17;16.73;;;6.40;99.90;;;;;;5040460;28;20257;-70
2022/11/22 01:06:46;;;;;;;33.33;17.87;;;6.40;99.90;;;;;;5039733;28;20316;-70
2022/11/22 01:09:18;;;;;;;29.90;17.10;;;6.40;99.90;;;;;;5041103;28;20220;-71
2022/11/22 01:11:45;;;;;;;36.77;18.20;;;6.40;99.90;;;;;;5041866;28;20204;-69
2022/11/22 01:14:12;;;;;;;36.60;19.20;;;6.40;99.90;;;;;;5025581;28;20669;-71
2022/11/22 01:16:39;;;;;;;33.40;20.03;;;6.40;99.90;;;;;;5024030;28;20202;-71
2022/11/22 01:19:05;;;;;;;37.93;19.50;;;6.30;99.90;;;;;;5054755;28;20242;-70
2022/11/22 01:21:33;;;;;;;30.83;19.03;;;6.40;99.90;;;;;;5038849;28;20768;-70
2022/11/22 01:24:00;;;;;;;36.47;21.07;;;6.40;99.90;;;;;;5041072;28;20312;-69
2022/11/22 01:26:27;;;;;;;31.43;21.07;;;6.40;99.90;;;;;;5040707;28;20233;-70
2022/11/22 01:28:53;;;;;;;40.60;22.33;;;6.40;99.90;;;;;;5038618;28;20223;-70
2022/11/22 01:31:20;;;;;;;39.70;22.27;;;6.40;99.90;;;;;;5045021;28;20204;-69
2022/11/22 01:33:47;;;;;;;44.83;22.87;;;6.40;99.90;;;;;;5041035;28;20576;-71
2022/11/22 01:36:14;;;;;;;39.90;23.73;;;6.40;99.90;;;;;;5037559;28;20311;-69
2022/11/22 01:38:40;;;;;;;40.03;22.60;;;6.40;99.90;;;;;;5027384;28;20314;-70
2022/11/22 01:41:07;;;;;;;43.03;23.37;;;6.50;99.90;;;;;;5040585;28;20212;-69
2022/11/22 01:43:34;;;;;;;41.03;22.00;;;6.50;99.90;;;;;;5039123;28;20319;-69
2022/11/22 01:46:14;;;;;;;39.33;22.07;;;6.50;99.90;;;;;;5023668;28;20209;-68
2022/11/22 01:48:52;;;;;;;43.47;21.83;;;6.50;99.90;;;;;;5054556;28;20302;-69
2022/11/22 01:51:21;;;;;;;34.80;21.97;;;6.60;99.90;;;;;;5039111;28;20221;-70
2022/11/22 01:53:48;;;;;;;40.13;21.50;;;6.60;99.90;;;;;;5042210;28;20266;-69
2022/11/22 01:56:18;;;;;;;39.20;21.93;;;6.60;99.90;;;;;;5038224;28;20238;-69
2022/11/22 01:58:51;;;;;;;42.23;21.53;;;6.60;99.90;;;;;;5039496;28;20208;-70
2022/11/22 02:01:18;;;;;;;50.93;21.73;;;6.70;99.90;;;;;;5039446;28;20285;-68
2022/11/22 02:03:48;;;;;;;37.47;20.90;;;6.70;99.90;;;;;;5029649;28;20222;-69
2022/11/22 02:06:15;;;;;;;37.13;21.37;;;6.70;99.90;;;;;;5039961;28;20225;-69
2022/11/22 02:08:55;;;;;;;35.00;19.53;;;6.70;99.90;;;;;;5041072;28;20287;-69
2022/11/22 02:11:25;;;;;;;36.33;19.60;;;6.70;99.90;;;;;;5040791;28;20602;-69
2022/11/22 02:13:59;;;;;;;35.87;19.43;;;6.80;99.90;;;;;;5039209;28;20200;-69
2022/11/22 02:16:26;;;;;;;40.30;19.50;;;6.70;99.90;;;;;;5043676;28;20237;-69
2022/11/22 02:18:53;;;;;;;39.97;18.40;;;6.70;99.90;;;;;;5034727;28;20223;-70
2022/11/22 02:21:20;;;;;;;41.57;19.10;;;6.80;99.90;;;;;;5043324;28;20223;-69
2022/11/22 02:24:06;;;;;;;33.00;18.60;;;6.80;99.90;;;;;;5046591;28;20285;-69
2022/11/22 02:26:33;;;;;;;33.70;18.33;;;6.80;99.90;;;;;;5044330;28;20576;-70
2022/11/22 02:29:04;;;;;;;36.20;17.90;;;6.80;99.90;;;;;;5042889;28;20239;-69
2022/11/22 02:31:45;;;;;;;39.57;18.23;;;6.80;99.90;;;;;;5049552;28;20231;-69
2022/11/22 02:34:13;;;;;;;36.33;17.93;;;6.80;99.90;;;;;;5041220;28;20299;-69
2022/11/22 02:36:47;;;;;;;34.43;17.07;;;6.80;99.90;;;;;;5034698;28;20331;-68
2022/11/22 02:39:18;;;;;;;40.77;17.30;;;6.80;99.90;;;;;;5042869;28;20326;-69
2022/11/22 02:41:46;;;;;;;33.70;16.23;;;6.80;99.90;;;;;;5041290;28;20671;-69
2022/11/22 02:44:14;;;;;;;38.17;17.53;;;6.80;99.90;;;;;;5044878;28;20255;-68
2022/11/22 02:46:49;;;;;;;30.00;14.80;;;6.70;99.90;;;;;;5039387;28;20672;-69
2022/11/22 02:49:21;;;;;;;33.67;17.10;;;6.70;99.90;;;;;;5042719;28;20315;-68
2022/11/22 02:51:49;;;;;;;30.83;16.20;;;6.60;99.90;;;;;;5047604;28;20211;-69
2022/11/22 02:54:16;;;;;;;35.97;17.60;;;6.60;99.90;;;;;;5027966;28;20588;-69
2022/11/22 02:56:43;;;;;;;40.77;16.33;;;6.50;99.90;;;;;;5043146;28;20212;-69
2022/11/22 02:59:09;;;;;;;36.73;16.27;;;6.60;99.90;;;;;;5043374;28;20613;-69
2022/11/22 03:01:37;;;;;;;35.73;17.07;;;6.50;99.90;;;;;;5026299;28;20313;-69
2022/11/22 03:04:04;;;;;;;36.27;18.37;;;6.50;99.90;;;;;;5024239;28;20327;-69
2022/11/22 03:06:30;;;;;;;36.33;17.27;;;6.50;99.90;;;;;;5046383;28;20768;-70
2022/11/22 03:08:57;;;;;;;41.37;16.60;;;6.50;99.90;;;;;;5043889;28;20694;-69
2022/11/22 03:11:24;;;;;;;34.70;17.43;;;6.60;99.90;;;;;;5044082;28;20568;-69
2022/11/22 03:13:51;;;;;;;36.63;17.70;;;6.50;99.90;;;;;;5026409;28;20239;-68
2022/11/22 03:16:18;;;;;;;34.87;15.37;;;6.50;99.90;;;;;;5041829;28;20260;-69
2022/11/22 03:18:45;;;;;;;41.27;17.03;;;6.40;99.90;;;;;;5041392;28;20296;-70
2022/11/22 03:21:11;;;;;;;37.73;17.77;;;6.40;99.90;;;;;;5042898;28;20220;-68
2022/11/22 03:23:38;;;;;;;34.60;15.67;;;6.40;99.90;;;;;;5041249;28;20228;-68
2022/11/22 03:26:11;;;;;;;42.10;17.37;;;6.40;99.90;;;;;;5046969;28;20728;-69
2022/11/22 03:28:37;;;;;;;38.10;18.20;;;6.40;99.90;;;;;;5043191;28;20268;-70
2022/11/22 03:31:05;;;;;;;44.07;16.40;;;6.50;99.90;;;;;;5025960;28;20640;-69
2022/11/22 03:33:33;;;;;;;35.80;15.87;;;6.40;99.90;;;;;;5039038;28;20599;-69
2022/11/22 03:36:00;;;;;;;35.53;16.20;;;6.40;99.90;;;;;;5042325;28;20232;-68
2022/11/22 03:38:27;;;;;;;37.57;16.83;;;6.50;99.90;;;;;;5042336;28;20209;-68
2022/11/22 03:40:53;;;;;;;35.43;15.60;;;6.50;99.90;;;;;;5040096;28;20213;-69
2022/11/22 03:43:21;;;;;;;41.20;15.43;;;6.50;99.90;;;;;;5029055;28;20205;-69
2022/11/22 03:45:48;;;;;;;38.50;15.53;;;6.50;99.90;;;;;;5029885;28;20216;-69
2022/11/22 03:48:14;;;;;;;33.90;14.53;;;6.50;99.90;;;;;;5044916;28;20312;-69
2022/11/22 03:50:41;;;;;;;30.97;14.50;;;6.50;99.90;;;;;;5055323;28;20684;-69
2022/11/22 03:53:08;;;;;;;32.53;14.23;;;6.60;99.90;;;;;;5041343;28;20340;-69
2022/11/22 03:55:35;;;;;;;28.30;12.23;;;6.50;99.90;;;;;;5042184;28;20566;-69
2022/11/22 03:58:02;;;;;;;23.17;11.73;;;6.50;99.90;;;;;;5041698;28;20226;-70
2022/11/22 04:00:29;;;;;;;24.87;10.73;;;6.50;99.90;;;;;;5041447;28;20290;-68
2022/11/22 04:02:55;;;;;;;21.00;9.93;;;6.50;99.90;;;;;;5024837;28;20233;-69
2022/11/22 04:05:22;;;;;;;23.77;8.83;;;6.40;99.90;;;;;;5042391;28;20670;-69
2022/11/22 04:07:54;;;;;;;22.17;9.40;;;6.40;99.90;;;;;;5041612;28;20230;-69
2022/11/22 04:10:22;;;;;;;32.53;11.93;;;6.40;99.90;;;;;;5041686;28;20599;-70
2022/11/22 04:12:49;;;;;;;27.63;9.60;;;6.40;99.90;;;;;;5042273;28;20568;-70
2022/11/22 04:15:16;;;;;;;25.07;10.30;;;6.40;99.90;;;;;;5042510;28;20290;-71
2022/11/22 04:17:44;;;;;;;27.10;9.90;;;6.40;99.90;;;;;;5041663;28;20687;-69
2022/11/22 04:23:04;;;;;;;25.87;9.40;;;6.40;99.90;;;;;;5040907;28;20204;-69
2022/11/22 04:25:32;;;;;;;25.60;9.10;;;6.40;99.90;;;;;;5039625;28;20242;-69
2022/11/22 04:28:00;;;;;;;21.73;7.87;;;6.40;99.90;;;;;;5040183;28;20210;-70
2022/11/22 04:33:13;;;;;;;25.30;8.10;;;6.30;99.90;;;;;;5039384;28;20644;-69
2022/11/22 04:35:41;;;;;;;19.13;7.47;;;6.30;99.90;;;;;;5037630;28;20315;-69
2022/11/22 04:38:08;;;;;;;25.37;7.87;;;6.20;99.90;;;;;;5041479;28;20305;-68
2022/11/22 04:40:35;;;;;;;28.43;7.93;;;6.20;99.90;;;;;;5038155;28;20821;-70
2022/11/22 04:45:48;;;;;;;20.20;6.43;;;6.20;99.90;;;;;;5038800;28;20286;-69
2022/11/22 04:48:16;;;;;;;23.50;6.77;;;6.20;99.90;;;;;;5024972;28;20265;-68
2022/11/22 04:53:29;;;;;;;24.13;6.23;;;6.10;99.90;;;;;;5039361;28;20288;-68
2022/11/22 04:55:56;;;;;;;26.73;6.00;;;6.20;99.90;;;;;;5039013;28;20667;-69
2022/11/22 04:58:23;;;;;;;21.37;5.57;;;6.10;99.90;;;;;;5027169;28;20600;-69
2022/11/22 05:00:50;;;;;;;20.17;5.47;;;6.10;99.90;;;;;;5041516;28;20209;-69
2022/11/22 05:03:17;;;;;;;28.07;6.20;;;6.10;99.90;;;;;;5029023;28;20207;-68
2022/11/22 05:05:44;;;;;;;21.10;4.90;;;6.10;99.90;;;;;;5045694;28;20543;-69
2022/11/22 05:08:12;;;;;;;13.90;4.80;;;6.00;99.90;;;;;;5039660;28;20210;-69
2022/11/22 05:13:28;;;;;;;18.30;4.80;;;5.90;99.90;;;;;;5042149;28;20210;-68
2022/11/22 05:15:56;;;;;;;19.53;4.97;;;5.90;99.90;;;;;;5038939;28;20210;-69
2022/11/22 05:18:24;;;;;;;18.00;4.80;;;5.80;99.90;;;;;;5042016;28;20565;-70
2022/11/22 05:20:51;;;;;;;19.53;5.57;;;5.80;99.90;;;;;;5027580;28;20656;-68
2022/11/22 05:26:05;;;;;;;18.07;4.83;;;5.80;99.90;;;;;;5039247;28;20229;-68
2022/11/22 05:28:33;;;;;;;23.93;5.87;;;5.70;99.90;;;;;;5038663;28;20300;-70
2022/11/22 05:31:13;;;;;;;19.20;4.80;;;5.70;99.90;;;;;;5039488;28;20239;-69
2022/11/22 05:33:41;;;;;;;21.73;4.73;;;5.70;99.90;;;;;;5038431;28;20239;-69
2022/11/22 05:36:11;;;;;;;17.67;5.00;;;5.60;99.90;;;;;;5041352;28;20308;-70
2022/11/22 05:38:38;;;;;;;14.57;5.30;;;5.60;99.90;;;;;;5027767;28;20248;-69
2022/11/22 05:41:08;;;;;;;21.13;5.00;;;5.60;99.90;;;;;;5040330;28;20209;-70
2022/11/22 05:43:35;;;;;;;17.57;5.80;;;5.60;99.90;;;;;;5027705;28;20320;-70
2022/11/22 05:46:05;;;;;;;15.70;4.53;;;5.50;99.90;;;;;;5038990;28;20235;-68
2022/11/22 05:48:32;;;;;;;29.33;4.97;;;5.50;99.90;;;;;;5024996;28;20221;-69
2022/11/22 05:51:06;;;;;;;19.10;5.40;;;5.50;99.90;;;;;;5020038;28;20234;-69
2022/11/22 05:53:33;;;;;;;16.63;4.33;;;5.40;99.90;;;;;;5039589;28;20205;-70
2022/11/22 05:56:05;;;;;;;17.63;4.47;;;5.40;99.90;;;;;;5034627;28;20238;-69
2022/11/22 05:58:32;;;;;;;18.13;4.47;;;5.40;99.90;;;;;;5041973;28;20209;-69
2022/11/22 06:01:18;;;;;;;16.50;4.90;;;5.30;99.90;;;;;;5060137;28;20232;-69
2022/11/22 06:03:45;;;;;;;20.73;4.80;;;5.30;99.90;;;;;;5049582;28;20328;-69
2022/11/22 06:06:13;;;;;;;22.03;4.90;;;5.30;99.90;;;;;;5050471;28;20233;-69
2022/11/22 06:08:42;;;;;;;21.30;4.93;;;5.20;99.90;;;;;;5060618;28;20748;-69
2022/11/22 06:11:29;;;;;;;22.47;4.57;;;5.20;99.90;;;;;;5044881;28;20208;-68
2022/11/22 06:13:59;;;;;;;21.93;5.10;;;5.20;99.90;;;;;;5044960;28;20221;-68
2022/11/22 06:16:26;;;;;;;21.07;5.07;;;5.20;99.90;;;;;;5045551;28;20205;-69
2022/11/22 06:18:53;;;;;;;15.27;5.07;;;5.20;99.90;;;;;;5045972;28;20326;-68
2022/11/22 06:21:25;;;;;;;21.13;5.13;;;5.20;99.90;;;;;;5029861;28;20205;-68
2022/11/22 06:23:55;;;;;;;18.70;5.90;;;5.10;99.90;;;;;;5028519;28;20240;-68
2022/11/22 06:26:23;;;;;;;25.40;4.93;;;5.10;99.90;;;;;;5060249;28;20258;-69
2022/11/22 06:28:50;;;;;;;29.10;7.43;;;5.10;99.90;;;;;;5045426;28;20211;-67
2022/11/22 06:31:20;;;;;;;18.67;5.00;;;5.00;99.90;;;;;;5042762;28;20212;-69
2022/11/22 06:33:47;;;;;;;15.80;5.43;;;5.00;99.90;;;;;;5047481;28;20197;-70
2022/11/22 06:36:18;;;;;;;16.47;5.20;;;5.00;99.90;;;;;;5047036;28;20323;-70
2022/11/22 06:38:45;;;;;;;17.03;4.67;;;5.00;99.90;;;;;;5044385;28;21800;-69
2022/11/22 06:41:16;;;;;;;19.80;5.13;;;4.90;99.90;;;;;;5054741;28;20214;-69
2022/11/22 06:43:45;;;;;;;28.80;5.03;;;4.90;99.90;;;;;;5040229;28;20245;-68
2022/11/22 06:46:25;;;;;;;27.23;5.07;;;5.00;99.90;;;;;;5043574;28;20238;-69
2022/11/22 06:48:52;;;;;;;25.53;4.73;;;4.90;99.90;;;;;;5040974;28;20200;-70
2022/11/22 06:51:22;;;;;;;21.43;5.23;;;4.90;99.90;;;;;;5048427;28;20213;-69
2022/11/22 06:53:50;;;;;;;16.20;5.07;;;4.90;99.90;;;;;;5041977;28;20258;-68
2022/11/22 06:56:46;;;;;;;26.07;5.63;;;4.80;99.90;;;;;;5041054;28;20288;-69
2022/11/22 06:59:13;;;;;;;15.00;5.20;;;4.80;99.90;;;;;;5043093;28;20595;-68
2022/11/22 07:01:39;;;;;;;16.97;5.57;;;4.80;99.90;;;;;;5045941;28;20229;-68
2022/11/22 07:04:06;;;;;;;22.87;5.23;;;4.80;99.90;;;;;;5040147;28;20210;-69
2022/11/22 07:06:37;;;;;;;23.00;5.20;;;4.80;99.90;;;;;;5051340;28;20380;-69
2022/11/22 07:09:07;;;;;;;18.10;5.43;;;4.70;99.90;;;;;;5043200;28;20203;-69
2022/11/22 07:11:35;;;;;;;20.83;4.90;;;4.80;99.90;;;;;;5042820;28;20239;-69
2022/11/22 07:14:04;;;;;;;27.10;5.70;;;4.70;99.90;;;;;;5046450;28;20254;-68
2022/11/22 07:16:36;;;;;;;22.57;5.37;;;4.80;99.90;;;;;;5047891;28;20210;-69
2022/11/22 07:19:03;;;;;;;21.33;5.67;;;4.70;99.90;;;;;;5040433;28;20213;-70
2022/11/22 07:21:31;;;;;;;22.87;4.90;;;4.70;99.90;;;;;;5028408;28;20350;-69
2022/11/22 07:23:58;;;;;;;19.20;5.80;;;4.70;99.90;;;;;;5043666;28;20326;-70
2022/11/22 07:26:25;;;;;;;18.70;5.83;;;4.70;99.90;;;;;;5012657;28;20432;-70
2022/11/22 07:28:52;;;;;;;14.53;4.93;;;4.70;99.90;;;;;;5017726;28;20610;-69
2022/11/22 07:31:20;;;;;;;20.50;6.40;;;4.70;99.90;;;;;;5040882;28;20221;-69
2022/11/22 07:33:47;;;;;;;19.17;5.17;;;4.60;99.90;;;;;;5046473;28;20295;-69
2022/11/22 07:36:17;;;;;;;18.20;5.60;;;4.60;99.90;;;;;;5046316;28;20656;-70
2022/11/22 07:38:44;;;;;;;25.07;6.10;;;4.70;99.90;;;;;;5040861;28;20608;-69
2022/11/22 07:41:11;;;;;;;19.27;5.97;;;4.60;99.90;;;;;;5044310;28;20253;-69
2022/11/22 07:43:38;;;;;;;25.00;6.97;;;4.70;99.90;;;;;;5028925;28;20224;-69
2022/11/22 07:46:07;;;;;;;19.33;6.77;;;4.70;99.90;;;;;;5025757;28;20232;-69
2022/11/22 07:48:34;;;;;;;30.60;6.60;;;4.70;99.90;;;;;;5025007;28;20292;-68
2022/11/22 07:51:07;;;;;;;22.80;6.67;;;4.80;99.90;;;;;;5039375;28;20217;-69
2022/11/22 07:53:34;;;;;;;24.93;8.57;;;4.80;99.90;;;;;;5041969;28;20688;-69
2022/11/22 07:56:05;;;;;;;23.30;6.97;;;4.90;99.90;;;;;;5046079;28;20208;-69
2022/11/22 07:58:33;;;;;;;23.07;6.47;;;5.00;99.90;;;;;;5042204;28;20630;-70
2022/11/22 08:01:08;;;;;;;19.23;6.90;;;5.00;99.90;;;;;;5046660;28;20318;-69
2022/11/22 08:03:38;;;;;;;19.83;7.27;;;5.10;99.90;;;;;;5040906;28;20203;-69
2022/11/22 08:06:07;;;;;;;21.90;7.10;;;5.20;99.90;;;;;;5046596;28;20642;-68
2022/11/22 08:08:35;;;;;;;19.47;6.40;;;5.20;99.90;;;;;;5040790;28;20194;-69
2022/11/22 08:11:03;;;;;;;22.03;5.80;;;5.20;99.90;;;;;;5062848;28;20197;-70
2022/11/22 08:13:31;;;;;;;25.17;6.50;;;5.30;99.90;;;;;;5040436;28;20251;-68
2022/11/22 08:16:10;;;;;;;19.23;5.93;;;5.30;99.90;;;;;;5044821;28;20210;-68
2022/11/22 08:18:38;;;;;;;19.97;5.77;;;5.40;99.90;;;;;;5024771;28;20299;-68
2022/11/22 08:21:13;;;;;;;20.03;6.20;;;5.30;99.90;;;;;;5042964;28;20238;-68
2022/11/22 08:23:43;;;;;;;24.77;6.37;;;5.40;99.90;;;;;;5040710;28;20203;-69
2022/11/22 08:26:13;;;;;;;18.87;6.10;;;5.50;99.90;;;;;;5028080;28;20341;-68
2022/11/22 08:28:43;;;;;;;18.23;6.30;;;5.50;99.90;;;;;;5046148;28;20649;-68
2022/11/22 08:31:17;;;;;;;19.63;5.83;;;5.50;99.90;;;;;;5047001;28;20289;-69
2022/11/22 08:33:45;;;;;;;14.23;5.43;;;5.60;99.90;;;;;;5044458;28;20245;-69
2022/11/22 08:36:14;;;;;;;20.30;5.20;;;5.60;99.90;;;;;;5027663;28;20234;-68
2022/11/22 08:38:44;;;;;;;16.37;5.77;;;5.60;99.90;;;;;;5048056;28;20194;-68
2022/11/22 08:41:11;;;;;;;21.40;6.20;;;5.70;99.90;;;;;;5037118;28;20290;-69
2022/11/22 08:43:38;;;;;;;22.13;5.53;;;5.70;99.90;;;;;;5046157;28;20225;-69
2022/11/22 08:46:05;;;;;;;17.27;5.40;;;5.80;99.90;;;;;;5029467;28;20225;-67
2022/11/22 08:48:34;;;;;;;19.37;5.87;;;5.80;99.90;;;;;;5042263;28;20208;-68
2022/11/22 08:51:06;;;;;;;26.00;5.73;;;5.80;99.90;;;;;;5041992;28;20672;-70
2022/11/22 08:53:35;;;;;;;14.17;4.83;;;5.90;99.90;;;;;;5045161;28;20323;-69
2022/11/22 08:56:04;;;;;;;16.13;4.87;;;5.90;99.90;;;;;;5028215;28;20272;-68
2022/11/22 08:58:32;;;;;;;18.70;5.13;;;5.90;99.90;;;;;;5042585;28;20238;-70
2022/11/22 09:01:09;;;;;;;16.60;5.90;;;5.90;99.90;;;;;;5040845;28;20290;-69
2022/11/22 09:03:37;;;;;;;14.67;5.23;;;6.00;99.90;;;;;;5044688;28;20631;-68
2022/11/22 09:06:06;;;;;;;22.70;5.20;;;5.90;99.90;;;;;;5044654;28;20330;-68
2022/11/22 09:08:53;;;;;;;17.20;6.37;;;6.10;99.90;;;;;;5042632;28;20554;-67
2022/11/22 09:11:39;;;;;;;14.93;4.53;;;6.00;99.90;;;;;;5048964;28;20219;-69
2022/11/22 09:14:06;;;;;;;13.13;5.37;;;6.00;99.90;;;;;;5041981;28;20213;-68
2022/11/22 09:16:33;;;;;;;13.47;4.07;;;6.10;99.90;;;;;;5036830;28;20299;-69
2022/11/22 09:19:00;;;;;;;20.13;5.20;;;6.00;99.90;;;;;;5037378;28;20285;-68
2022/11/22 09:21:26;;;;;;;19.40;4.40;;;6.10;99.90;;;;;;5049223;28;20224;-69
2022/11/22 09:23:53;;;;;;;11.33;4.13;;;6.10;99.90;;;;;;5041714;28;20295;-67
2022/11/22 09:26:23;;;;;;;13.13;5.33;;;6.10;99.90;;;;;;5046350;28;20223;-68
2022/11/22 09:28:51;;;;;;;15.93;4.30;;;6.20;99.90;;;;;;5040910;28;20287;-69
2022/11/22 09:31:20;;;;;;;15.77;3.93;;;6.20;99.90;;;;;;5039946;28;20302;-68
2022/11/22 09:33:48;;;;;;;17.03;5.10;;;6.30;99.90;;;;;;5046020;28;20211;-68
2022/11/22 09:36:18;;;;;;;13.40;4.03;;;6.30;99.90;;;;;;5042260;28;20266;-69
2022/11/22 09:38:45;;;;;;;12.17;3.53;;;6.40;99.90;;;;;;5044458;28;20571;-67
2022/11/22 09:41:15;;;;;;;12.43;3.93;;;6.40;99.90;;;;;;5040369;28;20308;-68
2022/11/22 09:44:08;;;;;;;16.90;4.23;;;6.40;99.90;;;;;;5042688;28;20211;-68
2022/11/22 09:46:51;;;;;;;15.13;3.83;;;6.40;99.90;;;;;;5061232;28;20226;-70
2022/11/22 09:49:26;;;;;;;10.97;3.47;;;6.40;99.90;;;;;;5039231;28;20209;-69
2022/11/22 09:52:08;;;;;;;12.07;3.67;;;6.50;99.90;;;;;;5041704;28;20583;-69
2022/11/22 09:54:54;;;;;;;10.97;3.47;;;6.50;99.90;;;;;;5041122;28;20301;-68
2022/11/22 09:57:36;;;;;;;9.73;3.60;;;6.60;99.90;;;;;;5041974;28;20225;-68
2022/11/22 10:00:13;;;;;;;14.77;3.90;;;6.70;99.90;;;;;;5042594;28;20665;-69
2022/11/22 10:02:47;;;;;;;13.97;4.03;;;6.70;99.90;;;;;;5042796;28;20239;-68
2022/11/22 10:05:53;;;;;;;11.73;3.30;;;6.80;99.90;;;;;;5041740;28;20300;-68
2022/11/22 10:08:28;;;;;;;12.27;3.57;;;6.80;99.90;;;;;;5030245;28;20247;-67
2022/11/22 10:10:58;;;;;;;13.27;3.80;;;6.80;99.90;;;;;;5044593;28;20203;-68
2022/11/22 10:13:48;;;;;;;8.37;3.20;;;6.80;99.90;;;;;;5041630;28;20205;-68
2022/11/22 10:16:24;;;;;;;8.90;4.00;;;6.80;99.90;;;;;;5043126;28;20267;-69
2022/11/22 10:19:18;;;;;;;9.93;3.53;;;6.90;99.90;;;;;;5034137;28;20291;-70
2022/11/22 10:21:47;;;;;;;11.27;3.50;;;6.90;99.90;;;;;;5040246;28;20268;-69
2022/11/22 10:24:16;;;;;;;10.27;3.33;;;6.90;99.90;;;;;;5043680;28;20291;-68
2022/11/22 10:26:45;;;;;;;10.43;3.43;;;6.90;99.90;;;;;;5043229;28;20229;-68
2022/11/22 10:29:22;;;;;;;12.17;3.50;;;7.00;99.90;;;;;;5044737;28;20275;-68
2022/11/22 10:32:01;;;;;;;15.00;3.53;;;7.10;99.90;;;;;;5046448;28;20213;-68
2022/11/22 10:35:05;;;;;;;14.73;3.90;;;7.10;99.90;;;;;;5040198;28;20699;-69
2022/11/22 10:38:10;;;;;;;11.83;3.30;;;7.20;99.90;;;;;;5040484;28;20223;-69
2022/11/22 10:40:49;;;;;;;13.53;4.20;;;7.20;99.90;;;;;;5005077;28;20209;-69
2022/11/22 10:43:39;;;;;;;7.30;3.13;;;7.20;99.90;;;;;;5040608;28;20673;-70
2022/11/22 10:46:21;;;;;;;8.30;3.40;;;7.20;99.90;;;;;;5042456;28;20231;-69
2022/11/22 10:49:13;;;;;;;9.73;3.37;;;7.30;99.90;;;;;;5040344;28;20649;-69
2022/11/22 10:52:14;;;;;;;7.57;2.97;;;7.30;99.90;;;;;;5042695;28;20312;-68
2022/11/22 10:55:08;;;;;;;8.97;3.00;;;7.40;99.90;;;;;;5047725;28;20232;-68
2022/11/22 10:57:44;;;;;;;12.70;4.00;;;7.40;99.90;;;;;;5023986;28;20722;-69
2022/11/22 11:00:25;;;;;;;11.47;3.63;;;7.40;99.90;;;;;;5038790;28;20718;-69
2022/11/22 11:03:04;;;;;;;7.43;3.77;;;7.50;99.90;;;;;;5043232;28;20300;-69
2022/11/22 11:05:40;;;;;;;12.33;3.43;;;7.50;99.90;;;;;;5049814;28;20224;-69
2022/11/22 11:08:43;;;;;;;8.80;3.47;;;7.60;99.90;;;;;;5027947;28;20575;-69
2022/11/22 11:11:29;;;;;;;11.93;3.13;;;7.60;99.90;;;;;;5023550;28;20215;-70
2022/11/22 11:14:03;;;;;;;11.50;3.23;;;7.50;99.90;;;;;;5043545;28;20211;-68
2022/11/22 11:16:34;;;;;;;8.57;2.90;;;7.60;99.90;;;;;;5040179;28;20194;-67
2022/11/22 11:19:10;;;;;;;5.73;3.00;;;7.60;99.90;;;;;;5044779;28;20603;-68
2022/11/22 11:21:37;;;;;;;10.37;3.30;;;7.60;99.90;;;;;;5041782;28;20227;-68
2022/11/22 11:24:12;;;;;;;9.10;3.80;;;7.40;99.90;;;;;;5040384;28;20194;-68
2022/11/22 11:26:42;;;;;;;7.83;2.80;;;7.50;99.90;;;;;;5026065;28;20851;-68
2022/11/22 11:29:17;;;;;;;10.77;3.23;;;7.60;99.90;;;;;;5039441;28;20204;-68
2022/11/22 11:31:49;;;;;;;8.10;3.33;;;7.70;99.90;;;;;;5044101;28;20217;-68
2022/11/22 11:34:19;;;;;;;8.80;3.20;;;7.60;99.90;;;;;;5040678;28;20635;-69
2022/11/22 11:36:47;;;;;;;9.27;2.97;;;7.60;99.90;;;;;;5040351;28;20695;-68
2022/11/22 11:39:27;;;;;;;5.37;2.77;;;7.60;99.90;;;;;;5033064;28;20206;-68
2022/11/22 11:41:56;;;;;;;7.90;3.17;;;7.60;99.90;;;;;;5043341;28;20304;-69
2022/11/22 11:44:34;;;;;;;12.67;3.40;;;7.60;99.90;;;;;;5041827;28;20740;-70
2022/11/22 11:47:05;;;;;;;9.80;2.70;;;7.60;99.90;;;;;;5033706;28;20261;-67
2022/11/22 11:49:33;;;;;;;6.27;3.10;;;7.60;99.90;;;;;;5038137;28;20294;-68
2022/11/22 11:52:17;;;;;;;11.47;3.60;;;7.60;99.90;;;;;;5042867;28;20221;-68
2022/11/22 11:54:47;;;;;;;6.73;2.37;;;7.60;99.90;;;;;;5039821;28;20680;-68
2022/11/22 11:57:17;;;;;;;6.83;2.60;;;7.60;99.90;;;;;;5041564;28;20255;-68
2022/11/22 11:59:47;;;;;;;5.43;2.77;;;7.60;99.90;;;;;;5040650;28;20219;-68
2022/11/22 12:02:24;;;;;;;4.93;2.47;;;7.60;99.90;;;;;;5039011;28;20671;-69
2022/11/22 12:05:04;;;;;;;6.70;2.30;;;7.60;99.90;;;;;;5039993;28;20215;-69
2022/11/22 12:07:33;;;;;;;5.63;2.40;;;7.70;99.90;;;;;;5041682;28;20289;-67
2022/11/22 12:10:21;;;;;;;7.10;2.77;;;7.70;99.90;;;;;;5043159;28;20553;-68
2022/11/22 12:12:52;;;;;;;4.60;1.93;;;7.80;99.90;;;;;;5044464;28;20575;-69
2022/11/22 12:15:38;;;;;;;7.60;2.53;;;7.80;99.90;;;;;;5040366;28;20311;-68
2022/11/22 12:18:42;;;;;;;5.13;2.20;;;7.90;99.90;;;;;;5035414;28;20733;-69
2022/11/22 12:21:21;;;;;;;5.30;2.73;;;7.90;99.90;;;;;;5050603;28;20255;-68
2022/11/22 12:24:08;;;;;;;5.13;2.03;;;7.90;99.90;;;;;;5023590;28;20243;-68
2022/11/22 12:26:55;;;;;;;6.27;2.77;;;7.90;99.90;;;;;;5040120;28;20233;-68
2022/11/22 12:29:23;;;;;;;7.70;2.57;;;7.90;99.90;;;;;;5040542;28;20203;-68
2022/11/22 12:32:11;;;;;;;5.37;2.30;;;8.00;99.90;;;;;;5046697;28;20267;-68
2022/11/22 12:34:53;;;;;;;6.10;2.50;;;7.90;99.90;;;;;;5032929;28;20203;-68
2022/11/22 12:38:01;;;;;;;5.90;2.00;;;7.90;99.90;;;;;;5038813;28;20318;-69
2022/11/22 12:40:53;;;;;;;3.93;1.83;;;8.00;99.90;;;;;;5040708;28;20244;-67
2022/11/22 12:43:38;;;;;;;4.43;2.20;;;8.00;99.90;;;;;;5038081;28;20302;-68
2022/11/22 12:46:12;;;;;;;4.50;1.80;;;8.00;99.90;;;;;;5039824;28;20281;-68
2022/11/22 12:48:47;;;;;;;5.60;2.00;;;8.00;99.90;;;;;;5033199;28;20222;-67
2022/11/22 12:51:25;;;;;;;7.07;3.50;;;8.00;99.90;;;;;;5029382;28;20340;-68
2022/11/22 12:53:58;;;;;;;3.03;1.87;;;8.00;99.90;;;;;;5037574;28;20246;-68
2022/11/22 12:56:47;;;;;;;3.13;2.07;;;8.10;99.90;;;;;;5039843;28;20207;-68
2022/11/22 12:59:20;;;;;;;5.33;2.50;;;8.10;99.90;;;;;;5055236;28;20238;-67
2022/11/22 13:01:57;;;;;;;4.47;2.00;;;8.10;99.90;;;;;;5024018;28;20211;-68
2022/11/22 13:04:42;;;;;;;5.70;1.80;;;8.10;99.90;;;;;;5029451;28;20269;-68
2022/11/22 13:07:21;;;;;;;4.07;1.93;;;8.10;99.90;;;;;;5043939;28;20246;-68
2022/11/22 13:09:54;;;;;;;4.33;2.10;;;8.10;99.90;;;;;;5042797;28;20243;-68
2022/11/22 13:12:31;;;;;;;5.80;1.80;;;8.00;99.90;;;;;;5039602;28;20213;-68
2022/11/22 13:14:59;;;;;;;3.30;2.40;;;8.10;99.90;;;;;;5038463;28;20216;-69
2022/11/22 13:17:32;;;;;;;3.13;1.70;;;8.00;99.90;;;;;;5038435;28;20213;-68
2022/11/22 13:20:03;;;;;;;4.53;1.80;;;8.00;99.90;;;;;;5036988;28;20200;-67
2022/11/22 13:23:04;;;;;;;3.03;1.80;;;8.00;99.90;;;;;;5040600;28;20267;-69
2022/11/22 13:25:57;;;;;;;3.10;1.83;;;8.00;99.90;;;;;;5039461;28;20248;-68